Time;durP1;ratioP1;P1;durP2;ratioP2;P2;SDS_P1;SDS_P2;PMS_P1;PMS_P2;Temp;Humidity;BMP_temperature;BMP_pressure;BME280_temperature;BME280_humidity;BME280_pressure;Samples;Min_cycle;Max_cycle;Signal;HPM_P1;HPM_P2
2022/08/09 00:02:24;;;;;;;;;11.00;10.33;;;;;21.59;55.25;100505.75;5030783;28;45633;-74
2022/08/09 00:04:50;;;;;;;;;11.33;11.00;;;;;21.53;56.33;100506.72;5028178;28;45247;-74
2022/08/09 00:07:15;;;;;;;;;12.00;12.00;;;;;21.24;56.33;100462.81;5023005;28;45481;-74
2022/08/09 00:09:41;;;;;;;;;11.33;10.67;;;;;21.47;56.01;100490.88;5017474;28;45469;-74
2022/08/09 00:12:08;;;;;;;;;11.33;9.33;;;;;21.47;56.25;100479.34;5017664;28;45501;-74
2022/08/09 00:14:35;;;;;;;;;11.67;10.00;;;;;21.39;56.05;100467.03;5018236;28;45485;-74
2022/08/09 00:17:00;;;;;;;;;12.33;11.33;;;;;21.57;56.12;100491.59;5027711;28;45342;-75
2022/08/09 00:22:47;;;;;;;;;10.67;10.67;;;;;21.49;57.44;100488.16;5017991;28;45342;-74
2022/08/09 00:25:13;;;;;;;;;11.67;11.67;;;;;21.32;57.79;100481.31;5017862;28;45387;-75
2022/08/09 00:27:38;;;;;;;;;12.50;12.50;;;;;21.21;58.39;100464.69;5018256;28;45516;-74
2022/08/09 00:30:04;;;;;;;;;13.00;13.00;;;;;21.28;58.16;100478.75;5017941;28;45520;-74
2022/08/09 00:32:30;;;;;;;;;13.33;11.67;;;;;21.37;58.79;100490.09;5017917;28;45403;-74
2022/08/09 00:34:55;;;;;;;;;14.00;13.00;;;;;21.39;58.70;100496.28;5018359;28;45276;-74
2022/08/09 00:37:21;;;;;;;;;11.67;11.33;;;;;21.24;57.88;100485.88;5018056;28;45615;-74
2022/08/09 00:39:46;;;;;;;;;11.00;9.33;;;;;21.25;57.30;100496.47;5017542;28;45328;-74
2022/08/09 00:42:12;;;;;;;;;11.33;10.00;;;;;21.25;57.15;100485.84;5017124;28;45219;-74
2022/08/09 00:44:37;;;;;;;;;12.33;11.33;;;;;21.34;57.33;100499.91;5017544;28;45632;-74
2022/08/09 00:47:03;;;;;;;;;11.33;10.00;;;;;21.33;57.09;100500.78;5026494;28;45397;-74
2022/08/09 00:49:29;;;;;;;;;9.33;9.33;;;;;21.36;57.40;100504.28;5036819;28;45504;-74
2022/08/09 00:51:55;;;;;;;;;10.33;9.33;;;;;21.37;57.28;100510.50;5034648;28;45357;-74
2022/08/09 00:54:22;;;;;;;;;10.33;10.33;;;;;21.40;56.56;100507.78;5020554;28;45441;-74
2022/08/09 00:56:47;;;;;;;;;10.67;10.00;;;;;21.39;56.87;100504.25;5027204;28;45446;-74
2022/08/09 00:59:13;;;;;;;;;12.00;12.00;;;;;21.41;57.29;100515.72;5029678;28;46288;-74
2022/08/09 01:01:41;;;;;;;;;11.33;11.33;;;;;21.39;57.39;100506.03;5019146;28;46472;-75
2022/08/09 01:04:21;;;;;;;;;10.00;10.00;;;;;21.46;56.97;100510.38;5017018;28;45655;-74
2022/08/09 01:07:30;;;;;;;;;9.67;9.67;;;;;21.46;57.31;100526.31;5016973;28;45505;-74
2022/08/09 01:10:13;;;;;;;;;13.33;11.00;;;;;21.49;56.97;100541.31;5027615;28;45487;-74
2022/08/09 01:12:54;;;;;;;;;10.00;9.67;;;;;21.49;57.02;100534.25;5029428;28;45641;-74
2022/08/09 01:15:27;;;;;;;;;7.67;7.67;;;;;21.53;56.73;100537.75;5016783;28;45362;-74
2022/08/09 01:18:00;;;;;;;;;9.33;8.00;;;;;21.24;56.70;100488.53;5032149;28;45463;-74
2022/08/09 01:20:37;;;;;;;;;11.33;10.33;;;;;21.50;56.82;100532.47;5020815;28;46327;-74
2022/08/09 01:23:20;;;;;;;;;12.33;11.67;;;;;21.42;57.94;100529.88;5016251;28;45473;-74
2022/08/09 01:25:58;;;;;;;;;15.33;14.33;;;;;21.30;59.46;100522.09;5031751;28;45453;-74
2022/08/09 01:28:24;;;;;;;;;14.67;14.33;;;;;21.20;59.29;100527.53;5024329;28;45493;-74
2022/08/09 01:30:53;;;;;;;;;13.33;12.67;;;;;20.97;59.76;100492.44;5024014;28;46069;-74
2022/08/09 01:33:29;;;;;;;;;15.67;14.67;;;;;20.94;60.39;100522.59;5018622;28;45299;-74
2022/08/09 01:36:07;;;;;;;;;13.33;12.33;;;;;20.93;59.87;100519.94;5016383;28;45388;-74
2022/08/09 01:38:41;;;;;;;;;13.33;13.00;;;;;20.92;60.11;100516.41;5019494;28;45569;-75
2022/08/09 01:41:20;;;;;;;;;13.00;12.33;;;;;20.88;59.46;100514.69;5027848;28;46142;-74
2022/08/09 01:43:50;;;;;;;;;13.00;10.67;;;;;20.82;59.20;100497.06;5016182;28;45451;-75
2022/08/09 01:46:27;;;;;;;;;13.00;13.00;;;;;20.62;59.49;100478.75;5016178;28;45477;-75
2022/08/09 01:48:57;;;;;;;;;14.00;13.67;;;;;20.80;59.54;100496.22;5031696;28;45861;-74
2022/08/09 01:51:24;;;;;;;;;13.50;13.50;;;;;20.83;59.46;100489.97;5016173;28;46197;-74
2022/08/09 01:53:54;;;;;;;;;9.33;9.00;;;;;20.81;59.16;100490.03;5016568;28;45391;-74
2022/08/09 01:56:22;;;;;;;;;14.00;12.67;;;;;20.68;60.07;100472.47;5030256;28;45410;-74
2022/08/09 01:58:50;;;;;;;;;12.00;12.00;;;;;20.58;60.00;100471.69;5033056;28;45427;-74
2022/08/09 02:01:18;;;;;;;;;12.33;12.33;;;;;20.77;59.38;100493.63;5016057;28;46047;-74
2022/08/09 02:03:45;;;;;;;;;12.33;12.33;;;;;20.84;59.55;100492.63;5029237;28;45173;-74
2022/08/09 02:06:12;;;;;;;;;11.33;11.33;;;;;20.84;59.73;100489.97;5038015;28;45683;-74
2022/08/09 02:08:41;;;;;;;;;11.00;11.00;;;;;20.98;59.01;100504.84;5035261;28;45262;-75
2022/08/09 02:11:08;;;;;;;;;11.33;10.33;;;;;21.02;59.29;100504.75;5019675;28;45703;-75
2022/08/09 02:13:36;;;;;;;;;12.67;12.00;;;;;21.03;59.74;100506.53;5032863;28;45505;-74
2022/08/09 02:16:04;;;;;;;;;13.00;12.00;;;;;20.99;59.76;100503.91;5023002;28;45528;-74
2022/08/09 02:18:32;;;;;;;;;13.33;11.67;;;;;20.94;59.85;100488.06;5034194;28;45180;-74
2022/08/09 02:21:04;;;;;;;;;11.33;11.33;;;;;21.01;60.17;100486.22;5028743;28;45509;-74
2022/08/09 02:23:39;;;;;;;;;11.00;10.67;;;;;20.98;60.84;100480.94;5024925;28;45305;-74
2022/08/09 02:26:06;;;;;;;;;12.33;12.00;;;;;20.86;62.17;100476.66;5022492;28;45347;-74
2022/08/09 02:28:36;;;;;;;;;11.00;11.00;;;;;20.80;61.77;100482.94;5032062;28;45473;-74
2022/08/09 02:31:17;;;;;;;;;13.00;13.00;;;;;20.85;61.22;100481.13;5031677;28;45211;-74
2022/08/09 02:33:46;;;;;;;;;12.67;10.33;;;;;20.91;61.53;100479.25;5020654;28;45432;-74
2022/08/09 02:36:23;;;;;;;;;13.67;12.33;;;;;20.78;62.15;100458.19;5019582;28;45261;-74
2022/08/09 02:38:54;;;;;;;;;10.00;10.00;;;;;20.89;62.06;100471.34;5031145;28;45432;-74
2022/08/09 02:41:39;;;;;;;;;12.00;12.00;;;;;20.91;61.44;100466.88;5022066;28;45557;-74
2022/08/09 02:44:10;;;;;;;;;14.00;14.00;;;;;20.97;61.72;100458.81;5026541;28;45576;-74
2022/08/09 02:46:38;;;;;;;;;11.67;11.00;;;;;21.04;61.30;100464.91;5027310;28;45389;-74
2022/08/09 02:49:09;;;;;;;;;13.00;13.00;;;;;21.08;61.19;100477.25;5028638;28;45418;-74
2022/08/09 02:51:37;;;;;;;;;13.00;11.67;;;;;21.10;61.16;100471.91;5018759;28;46169;-74
2022/08/09 02:54:07;;;;;;;;;12.67;12.00;;;;;21.01;61.11;100464.97;5018711;28;45328;-74
2022/08/09 02:56:34;;;;;;;;;16.67;15.00;;;;;20.91;62.39;100464.22;5019017;28;45499;-74
2022/08/09 02:59:04;;;;;;;;;15.00;13.67;;;;;20.69;62.38;100442.41;5018769;28;45468;-74
2022/08/09 03:01:31;;;;;;;;;12.33;11.67;;;;;20.80;62.55;100452.88;5031055;28;46091;-74
2022/08/09 03:03:59;;;;;;;;;13.67;13.67;;;;;20.73;62.97;100448.53;5021499;28;45525;-74
2022/08/09 03:06:26;;;;;;;;;14.00;14.00;;;;;20.75;63.69;100458.25;5032934;28;45389;-74
2022/08/09 03:08:53;;;;;;;;;13.33;12.67;;;;;20.57;62.53;100418.63;5027942;28;45412;-74
2022/08/09 03:11:21;;;;;;;;;15.33;13.67;;;;;20.95;62.42;100475.66;5024714;28;45478;-74
2022/08/09 03:13:48;;;;;;;;;12.25;11.75;;;;;21.01;61.97;100481.78;5018687;28;45502;-75
2022/08/09 03:16:17;;;;;;;;;15.25;14.00;;;;;21.02;61.38;100475.56;5023136;28;45886;-74
2022/08/09 03:18:46;;;;;;;;;12.33;12.33;;;;;21.10;61.24;100495.81;5031861;28;45387;-74
2022/08/09 03:21:15;;;;;;;;;15.67;15.00;;;;;21.01;60.92;100497.72;5038032;28;45981;-74
2022/08/09 03:23:45;;;;;;;;;12.00;10.67;;;;;20.98;61.13;100487.13;5024985;28;45499;-74
2022/08/09 03:26:14;;;;;;;;;12.50;11.75;;;;;21.18;60.82;100497.47;5035295;28;45287;-74
2022/08/09 03:28:41;;;;;;;;;11.67;11.33;;;;;21.20;60.74;100490.34;5024412;28;45645;-74
2022/08/09 03:31:09;;;;;;;;;12.33;12.33;;;;;20.99;61.44;100451.72;5027934;28;45481;-74
2022/08/09 03:33:36;;;;;;;;;13.33;12.67;;;;;21.08;60.94;100479.03;5031726;28;45465;-74
2022/08/09 03:36:03;;;;;;;;;13.33;13.00;;;;;20.99;62.71;100472.06;5027848;28;45420;-74
2022/08/09 03:38:29;;;;;;;;;13.00;11.67;;;;;20.91;62.83;100466.88;5024101;28;45464;-75
2022/08/09 03:40:55;;;;;;;;;13.67;13.67;;;;;20.39;63.58;100412.66;5018978;28;45418;-75
2022/08/09 03:43:20;;;;;;;;;12.00;11.33;;;;;20.55;63.57;100434.59;5032235;28;45437;-74
2022/08/09 03:45:46;;;;;;;;;15.67;14.00;;;;;20.39;64.41;100403.81;5027605;28;45539;-74
2022/08/09 03:48:12;;;;;;;;;11.67;10.67;;;;;20.64;63.56;100436.25;5024543;28;45499;-74
2022/08/09 03:50:41;;;;;;;;;12.67;12.67;;;;;20.78;62.71;100442.25;5034669;28;45430;-74
2022/08/09 03:53:08;;;;;;;;;12.67;12.33;;;;;20.89;62.34;100450.09;5037718;28;45493;-75
2022/08/09 03:55:35;;;;;;;;;12.33;11.33;;;;;20.88;61.91;100450.09;5037156;28;45443;-75
2022/08/09 03:58:01;;;;;;;;;15.00;14.00;;;;;20.84;62.08;100455.44;5031723;28;45479;-74
2022/08/09 04:00:27;;;;;;;;;12.00;12.00;;;;;20.81;62.03;100457.25;5017553;28;45928;-74
2022/08/09 04:02:54;;;;;;;;;10.33;10.33;;;;;20.63;62.03;100419.47;5031439;28;45466;-74
2022/08/09 04:05:20;;;;;;;;;12.00;11.33;;;;;20.94;62.31;100458.84;5019628;28;45744;-74
2022/08/09 04:07:46;;;;;;;;;13.00;11.75;;;;;20.96;62.23;100443.78;5018075;28;45521;-74
2022/08/09 04:10:13;;;;;;;;;13.33;13.33;;;;;21.08;62.15;100452.47;5027185;28;45951;-74
2022/08/09 04:12:45;;;;;;;;;13.00;12.33;;;;;21.09;61.93;100443.59;5036513;28;45525;-74
2022/08/09 04:15:12;;;;;;;;;13.67;11.67;;;;;20.40;62.53;100337.47;5034410;28;45397;-74
2022/08/09 04:17:39;;;;;;;;;13.00;13.00;;;;;20.90;63.31;100435.03;5018008;28;45418;-74
2022/08/09 04:20:05;;;;;;;;;13.67;13.00;;;;;20.65;63.94;100398.19;5017379;28;46136;-74
2022/08/09 04:22:31;;;;;;;;;15.25;14.25;;;;;20.92;63.27;100435.88;5025065;28;45566;-74
2022/08/09 04:24:56;;;;;;;;;11.67;10.67;;;;;21.03;62.69;100445.44;5025666;28;45342;-74
2022/08/09 04:27:22;;;;;;;;;12.33;12.33;;;;;21.09;62.78;100451.56;5024463;28;45528;-74
2022/08/09 04:29:48;;;;;;;;;14.00;13.00;;;;;21.01;63.38;100449.91;5033697;28;46013;-74
2022/08/09 04:32:13;;;;;;;;;14.00;13.25;;;;;20.91;62.96;100436.78;5017624;28;46714;-75
2022/08/09 04:34:39;;;;;;;;;12.67;12.00;;;;;21.06;62.34;100449.84;5017717;28;45486;-74
2022/08/09 04:37:04;;;;;;;;;14.00;13.33;;;;;21.09;61.91;100459.53;5022656;28;45474;-74
2022/08/09 04:39:30;;;;;;;;;12.00;12.00;;;;;21.04;62.80;100462.25;5026855;28;46162;-74
2022/08/09 04:41:55;;;;;;;;;12.33;12.33;;;;;20.82;63.10;100449.28;5016838;28;45433;-74
2022/08/09 04:44:21;;;;;;;;;12.00;12.00;;;;;20.91;63.30;100458.91;5016930;28;45473;-74
2022/08/09 04:46:47;;;;;;;;;13.00;12.33;;;;;20.91;63.51;100463.31;5017149;28;45377;-75
2022/08/09 04:49:13;;;;;;;;;15.00;15.00;;;;;20.96;63.40;100458.84;5017516;28;45635;-74
2022/08/09 04:51:38;;;;;;;;;14.00;13.33;;;;;20.97;63.85;100460.56;5032187;28;45510;-74
2022/08/09 04:54:04;;;;;;;;;12.67;12.67;;;;;21.01;63.82;100480.91;5017305;28;45417;-74
2022/08/09 04:56:29;;;;;;;;;13.00;12.33;;;;;20.96;63.70;100480.94;5017415;28;45468;-74
2022/08/09 04:58:55;;;;;;;;;13.00;12.75;;;;;21.01;63.35;100492.41;5016998;28;45495;-74
2022/08/09 05:01:21;;;;;;;;;11.67;11.67;;;;;21.08;62.87;100495.84;5028019;28;45795;-74
2022/08/09 05:03:47;;;;;;;;;12.33;11.67;;;;;20.99;62.14;100480.91;5028522;28;45392;-74
2022/08/09 05:06:13;;;;;;;;;12.50;11.75;;;;;21.16;62.23;100501.03;5028825;28;45944;-74
2022/08/09 05:08:39;;;;;;;;;13.00;13.00;;;;;20.94;64.15;100473.91;5020325;28;46077;-75
2022/08/09 05:11:06;;;;;;;;;15.00;14.67;;;;;20.84;67.24;100497.06;5016845;28;45608;-74
2022/08/09 05:13:31;;;;;;;;;19.50;18.75;;;;;20.83;66.93;100500.59;5017441;28;45517;-74
2022/08/09 05:15:57;;;;;;;;;13.67;13.00;;;;;20.72;65.69;100463.56;5028281;28;45322;-75
2022/08/09 05:18:24;;;;;;;;;15.33;14.33;;;;;20.89;65.80;100481.06;5020665;28;46131;-74
2022/08/09 05:20:49;;;;;;;;;14.67;14.67;;;;;20.89;68.67;100475.75;5032023;28;45449;-74
2022/08/09 05:23:15;;;;;;;;;13.33;12.67;;;;;20.86;69.10;100490.81;5016510;28;45284;-74
2022/08/09 05:25:40;;;;;;;;;14.33;14.00;;;;;20.71;67.60;100463.59;5016733;28;45539;-74
2022/08/09 05:28:06;;;;;;;;;14.67;13.00;;;;;20.89;67.81;100491.66;5031393;28;46236;-74
2022/08/09 05:30:33;;;;;;;;;13.67;13.00;;;;;20.82;67.56;100483.78;5015401;28;45447;-74
2022/08/09 05:32:59;;;;;;;;;14.33;12.33;;;;;20.71;67.37;100466.25;5019348;28;45346;-74
2022/08/09 05:35:25;;;;;;;;;7.33;7.33;;;;;20.91;66.76;100495.19;5027462;28;45567;-75
2022/08/09 05:37:51;;;;;;;;;9.33;9.33;;;;;20.91;67.58;100505.81;5020427;28;45361;-74
2022/08/09 05:40:17;;;;;;;;;14.33;13.67;;;;;20.88;67.57;100501.41;5019488;28;45570;-74
2022/08/09 05:42:42;;;;;;;;;14.67;13.67;;;;;20.90;68.19;100509.38;5037294;28;45688;-74
2022/08/09 05:45:09;;;;;;;;;15.00;13.67;;;;;20.76;69.82;100505.13;5020068;28;45656;-74
2022/08/09 05:47:34;;;;;;;;;13.67;13.33;;;;;20.68;68.41;100507.00;5019817;28;46044;-74
2022/08/09 05:50:00;;;;;;;;;11.33;11.33;;;;;20.72;68.45;100514.00;5020075;28;45240;-74
2022/08/09 05:52:26;;;;;;;;;14.33;14.33;;;;;20.75;68.72;100508.69;5019962;28;45429;-74
2022/08/09 05:54:51;;;;;;;;;15.00;14.67;;;;;20.59;69.50;100477.91;5038134;28;45320;-74
2022/08/09 05:57:17;;;;;;;;;18.75;17.50;;;;;20.72;68.99;100502.53;5039907;28;45384;-74
2022/08/09 05:59:42;;;;;;;;;15.67;14.67;;;;;20.90;69.48;100534.16;5039455;28;45781;-74
2022/08/09 06:02:08;;;;;;;;;12.00;11.50;;;;;20.94;69.80;100537.66;5027774;28;45236;-74
2022/08/09 06:04:35;;;;;;;;;13.75;13.25;;;;;20.99;69.09;100546.41;5020247;28;45255;-74
2022/08/09 06:07:02;;;;;;;;;16.00;15.33;;;;;20.93;69.66;100534.13;5019219;28;46205;-74
2022/08/09 06:09:28;;;;;;;;;15.00;15.00;;;;;20.98;69.85;100540.22;5019133;28;45403;-74
2022/08/09 06:11:53;;;;;;;;;15.00;14.33;;;;;20.99;69.46;100542.00;5031806;28;45867;-74
2022/08/09 06:14:19;;;;;;;;;13.33;12.67;;;;;20.92;69.71;100534.13;5022997;28;45508;-74
2022/08/09 06:16:44;;;;;;;;;14.67;14.67;;;;;20.99;68.72;100542.00;5038123;28;46345;-74
2022/08/09 06:19:10;;;;;;;;;14.67;14.00;;;;;20.99;69.36;100542.00;5030768;28;45457;-74
2022/08/09 06:21:35;;;;;;;;;15.67;14.00;;;;;21.03;69.15;100537.53;5031288;28;45336;-74
2022/08/09 06:24:01;;;;;;;;;14.00;13.67;;;;;21.01;69.70;100526.06;5039035;28;45334;-75
2022/08/09 06:26:26;;;;;;;;;14.00;14.00;;;;;21.09;69.82;100526.81;5019619;28;45470;-74
2022/08/09 06:28:54;;;;;;;;;13.00;11.67;;;;;21.15;69.42;100521.44;5026137;28;45363;-74
2022/08/09 06:31:20;;;;;;;;;13.00;12.33;;;;;21.19;69.13;100522.28;5027634;28;45425;-74
2022/08/09 06:33:46;;;;;;;;;12.33;12.33;;;;;21.24;68.45;100510.66;5034098;28;45277;-75
2022/08/09 06:36:11;;;;;;;;;14.67;14.33;;;;;21.25;69.01;100499.13;5019085;28;46041;-74
2022/08/09 06:38:37;;;;;;;;;12.33;12.33;;;;;21.32;67.98;100501.69;5025777;28;45509;-74
2022/08/09 06:41:03;;;;;;;;;14.67;13.33;;;;;21.42;67.54;100503.31;5038588;28;45507;-74
2022/08/09 06:43:30;;;;;;;;;13.67;12.67;;;;;21.48;67.54;100497.06;5038077;28;45537;-75
2022/08/09 06:45:55;;;;;;;;;15.67;15.00;;;;;21.41;67.56;100461.72;5034603;28;45442;-74
2022/08/09 06:48:21;;;;;;;;;14.67;13.67;;;;;21.59;68.20;100490.69;5025914;28;45386;-74
2022/08/09 06:50:46;;;;;;;;;17.25;17.00;;;;;21.63;69.25;100481.75;5038512;28;45569;-74
2022/08/09 06:53:12;;;;;;;;;16.25;15.75;;;;;21.84;68.41;100485.84;5023961;28;45437;-74
2022/08/09 06:55:37;;;;;;;;;18.25;17.00;;;;;22.04;68.44;100482.81;5018709;28;45975;-75
2022/08/09 06:58:03;;;;;;;;;15.33;15.33;;;;;22.20;67.85;100477.19;5018616;28;45526;-74
2022/08/09 07:00:34;;;;;;;;;16.00;14.33;;;;;22.31;67.54;100469.03;5033787;28;45648;-74
2022/08/09 07:03:01;;;;;;;;;19.33;17.33;;;;;22.38;67.54;100476.88;5023379;28;45552;-75
2022/08/09 07:05:27;;;;;;;;;14.00;13.67;;;;;22.35;67.48;100470.75;5033689;28;45450;-74
2022/08/09 07:07:54;;;;;;;;;17.50;15.75;;;;;22.32;65.92;100449.50;5018606;28;46070;-74
2022/08/09 07:10:20;;;;;;;;;14.33;12.33;;;;;22.30;66.75;100468.16;5029973;28;45384;-75
2022/08/09 07:12:46;;;;;;;;;13.67;13.67;;;;;22.33;67.82;100457.44;5023161;28;45482;-74
2022/08/09 07:15:12;;;;;;;;;17.00;15.33;;;;;22.56;66.99;100464.09;5033544;28;45492;-74
2022/08/09 07:17:37;;;;;;;;;15.25;13.50;;;;;22.76;63.59;100451.25;5025023;28;45627;-74
2022/08/09 07:20:03;;;;;;;;;15.00;15.00;;;;;23.16;62.31;100477.00;5038836;28;45387;-74
2022/08/09 07:22:29;;;;;;;;;15.33;15.33;;;;;23.48;63.15;100480.72;5024112;28;45346;-74
2022/08/09 07:24:54;;;;;;;;;14.67;13.00;;;;;23.79;63.03;100483.50;5035982;28;45349;-75
2022/08/09 07:27:20;;;;;;;;;17.00;15.33;;;;;24.53;62.02;100475.31;5037765;28;45248;-74
2022/08/09 07:29:46;;;;;;;;;15.33;14.33;;;;;24.89;60.28;100467.13;5033468;28;45528;-74
2022/08/09 07:32:11;;;;;;;;;13.00;13.00;;;;;25.13;59.67;100485.09;5035653;28;47362;-75
2022/08/09 07:34:37;;;;;;;;;16.67;16.33;;;;;25.59;59.43;100485.44;5017586;28;46124;-74
2022/08/09 07:37:02;;;;;;;;;14.33;14.00;;;;;26.22;57.70;100488.63;5018150;28;45417;-75
2022/08/09 07:39:28;;;;;;;;;13.67;13.00;;;;;26.68;55.24;100449.50;5036842;28;45540;-75
2022/08/09 07:41:54;;;;;;;;;12.00;12.00;;;;;27.38;54.10;100479.81;5022788;28;45409;-74
2022/08/09 07:44:19;;;;;;;;;12.00;12.00;;;;;27.03;53.85;100479.38;5033339;28;45732;-75
2022/08/09 07:46:46;;;;;;;;;12.33;12.33;;;;;26.76;53.63;100471.50;5023723;28;45359;-75
2022/08/09 07:49:12;;;;;;;;;14.00;14.00;;;;;26.44;54.31;100456.63;5026438;28;45490;-75
2022/08/09 07:51:38;;;;;;;;;12.67;11.33;;;;;26.42;54.66;100458.44;5031511;28;45640;-75
2022/08/09 07:54:03;;;;;;;;;16.33;15.67;;;;;26.40;55.45;100449.59;5036917;28;45589;-76
2022/08/09 07:56:29;;;;;;;;;12.67;12.00;;;;;26.21;56.62;100451.22;5029468;28;45448;-75
2022/08/09 07:58:55;;;;;;;;;15.67;15.33;;;;;25.92;58.50;100445.97;5017668;28;45359;-75
2022/08/09 08:01:20;;;;;;;;;15.00;14.00;;;;;25.90;57.38;100446.91;5017813;28;45520;-76
2022/08/09 08:03:46;;;;;;;;;13.00;12.33;;;;;25.93;57.43;100444.19;5026075;28;45535;-75
2022/08/09 08:06:12;;;;;;;;;16.00;16.00;;;;;25.58;58.10;100419.47;5032516;28;45421;-73
2022/08/09 08:08:37;;;;;;;;;12.33;12.00;;;;;25.63;57.45;100438.06;5037178;28;45411;-76
2022/08/09 08:11:03;;;;;;;;;13.00;13.00;;;;;25.87;56.92;100445.25;5020801;28;45223;-76
2022/08/09 08:13:29;;;;;;;;;16.67;15.33;;;;;25.65;56.25;100426.38;5016704;28;45232;-75
2022/08/09 08:15:55;;;;;;;;;16.00;15.67;;;;;25.69;56.19;100437.84;5016302;28;45473;-76
2022/08/09 08:18:21;;;;;;;;;14.33;12.67;;;;;25.09;56.90;100384.53;5016416;28;45536;-75
2022/08/09 08:20:46;;;;;;;;;15.00;14.33;;;;;25.33;57.14;100431.00;5017175;28;45459;-75
2022/08/09 08:23:13;;;;;;;;;16.33;16.33;;;;;23.53;56.89;100160.63;5017074;28;45979;-75
2022/08/09 08:25:39;;;;;;;;;14.33;14.33;;;;;23.61;56.85;100170.16;5022749;28;45528;-75
2022/08/09 08:28:04;;;;;;;;;12.67;12.67;;;;;24.98;57.07;100386.69;5026139;28;45636;-75
2022/08/09 08:30:30;;;;;;;;;15.00;13.33;;;;;24.15;54.84;100269.97;5030066;28;45402;-74
2022/08/09 08:32:56;;;;;;;;;13.00;12.67;;;;;25.18;56.04;100447.50;5030027;28;46147;-75
2022/08/09 08:35:21;;;;;;;;;15.33;15.00;;;;;25.27;57.18;100495.38;5019197;28;45384;-75
2022/08/09 08:37:48;;;;;;;;;15.00;14.00;;;;;25.18;56.92;100464.41;5032030;28;45469;-75
2022/08/09 08:40:14;;;;;;;;;13.67;13.00;;;;;25.22;57.39;100465.22;5017282;28;45615;-76
2022/08/09 08:42:41;;;;;;;;;14.00;13.00;;;;;25.54;55.78;100503.44;5028533;28;45371;-76
2022/08/09 08:45:10;;;;;;;;;14.00;13.67;;;;;25.64;53.86;100514.72;5035423;28;45177;-76
2022/08/09 08:47:36;;;;;;;;;14.00;13.00;;;;;25.72;52.77;100524.22;5031251;28;45472;-76
2022/08/09 08:50:02;;;;;;;;;13.00;12.00;;;;;25.86;52.21;100530.91;5025547;28;45527;-77
2022/08/09 08:52:29;;;;;;;;;11.00;11.00;;;;;26.00;51.39;100542.06;5023306;28;46241;-76
2022/08/09 08:54:58;;;;;;;;;15.67;14.33;;;;;25.33;51.68;100446.19;5031669;28;45243;-76
2022/08/09 08:57:26;;;;;;;;;14.00;14.00;;;;;25.68;51.11;100460.16;5017040;28;45500;-76
2022/08/09 08:59:53;;;;;;;;;13.00;12.00;;;;;24.42;50.40;100245.97;5016218;28;45309;-76
2022/08/09 09:02:27;;;;;;;;;12.00;12.00;;;;;25.21;50.24;100372.56;5016346;28;45686;-74
2022/08/09 09:04:54;;;;;;;;;15.00;13.00;;;;;23.87;50.78;100111.63;5030915;28;45492;-75
2022/08/09 09:07:20;;;;;;;;;13.33;13.00;;;;;26.86;49.41;100564.94;5022390;28;45223;-75
2022/08/09 09:09:47;;;;;;;;;12.00;12.00;;;;;26.56;48.67;100455.25;5024966;28;45529;-75
2022/08/09 09:12:19;;;;;;;;;11.00;11.00;;;;;26.42;48.00;100379.91;5016169;28;46532;-75
2022/08/09 09:14:47;;;;;;;;;12.00;12.00;;;;;26.24;47.08;100323.44;5015125;28;45338;-75
2022/08/09 09:17:13;;;;;;;;;15.67;14.67;;;;;27.03;45.61;100333.75;5023255;28;45575;-75
2022/08/09 09:19:39;;;;;;;;;12.33;12.33;;;;;30.41;44.06;100577.97;5023166;28;45412;-76
2022/08/09 09:22:12;;;;;;;;;13.33;12.67;;;;;32.47;39.41;100552.84;5030614;28;45855;-76
2022/08/09 09:24:47;;;;;;;;;10.33;9.33;;;;;33.71;37.41;100514.31;5019424;28;45874;-77
2022/08/09 09:27:21;;;;;;;;;6.67;6.33;;;;;35.97;34.26;100582.34;5025108;28;45557;-76
2022/08/09 09:29:47;;;;;;;;;12.00;11.33;;;;;36.91;31.57;100583.25;5029558;28;45512;-76
2022/08/09 09:32:20;;;;;;;;;25.33;24.00;;;;;37.27;30.38;100577.69;5015775;28;46206;-76
2022/08/09 09:35:09;;;;;;;;;13.00;12.67;;;;;38.21;29.03;100581.63;5029665;28;45489;-77
2022/08/09 09:37:35;;;;;;;;;9.33;9.33;;;;;37.06;29.27;100461.31;5020007;28;45335;-77
2022/08/09 09:40:00;;;;;;;;;12.00;11.00;;;;;37.73;29.57;100587.53;5025573;28;45473;-76
2022/08/09 09:42:30;;;;;;;;;11.33;11.33;;;;;37.72;30.00;100573.00;5021175;28;46151;-77
2022/08/09 09:45:04;;;;;;;;;11.00;11.00;;;;;37.47;30.91;100584.22;5017227;28;45402;-76
2022/08/09 09:47:30;;;;;;;;;10.67;10.00;;;;;36.93;31.33;100573.09;5027190;28;45659;-75
2022/08/09 09:49:58;;;;;;;;;11.67;11.00;;;;;36.73;31.03;100592.84;5015001;28;45395;-77
2022/08/09 09:52:26;;;;;;;;;10.00;10.00;;;;;36.30;31.10;100593.50;5014929;28;46147;-76
2022/08/09 09:55:00;;;;;;;;;42.50;36.50;;;;;35.95;32.51;100595.19;5033681;28;45495;-77
2022/08/09 09:57:26;;;;;;;;;12.33;12.00;;;;;35.65;32.66;100596.50;5034593;28;45492;-76
2022/08/09 09:59:53;;;;;;;;;10.00;10.00;;;;;35.40;33.19;100588.44;5034303;28;45508;-76
2022/08/09 10:02:20;;;;;;;;;10.33;9.67;;;;;35.22;33.72;100586.06;5033509;28;46321;-77
2022/08/09 10:05:07;;;;;;;;;12.33;12.00;;;;;35.24;34.17;100604.97;5033791;28;45347;-77
2022/08/09 10:07:33;;;;;;;;;12.00;11.00;;;;;35.00;32.99;100569.59;5022834;28;45552;-76
2022/08/09 10:10:00;;;;;;;;;7.33;7.33;;;;;35.15;31.94;100595.59;5030628;28;45546;-77
2022/08/09 10:12:35;;;;;;;;;10.00;9.67;;;;;35.10;31.25;100594.19;5033976;28;45678;-76
2022/08/09 10:15:15;;;;;;;;;7.67;7.33;;;;;35.33;31.97;100557.25;5025484;28;45342;-76
2022/08/09 10:17:51;;;;;;;;;9.67;9.67;;;;;35.79;32.10;100600.03;5014603;28;45535;-76
2022/08/09 10:20:16;;;;;;;;;10.67;9.67;;;;;36.20;31.78;100602.34;5018138;28;45343;-76
2022/08/09 10:22:43;;;;;;;;;12.67;12.67;;;;;36.92;30.66;100576.78;5026407;28;45851;-77
2022/08/09 10:25:09;;;;;;;;;9.33;8.67;;;;;37.61;30.64;100593.00;5014187;28;45260;-76
2022/08/09 10:27:35;;;;;;;;;8.00;8.00;;;;;36.62;29.65;100344.19;5017247;28;45414;-77
2022/08/09 10:30:03;;;;;;;;;8.67;7.67;;;;;38.13;28.14;100582.28;5037969;28;45427;-77
2022/08/09 10:32:28;;;;;;;;;9.00;9.00;;;;;38.26;27.02;100584.84;5024980;28;45358;-77
2022/08/09 10:34:55;;;;;;;;;9.00;9.00;;;;;38.39;27.44;100580.03;5025844;28;45917;-77
2022/08/09 10:37:20;;;;;;;;;10.00;10.00;;;;;38.31;27.39;100579.84;5024063;28;45481;-77
2022/08/09 10:39:47;;;;;;;;;8.33;8.33;;;;;38.11;26.96;100520.69;5026775;28;45437;-78
2022/08/09 10:42:14;;;;;;;;;10.67;10.67;;;;;38.96;25.84;100504.06;5017598;28;46051;-78
2022/08/09 10:44:46;;;;;;;;;10.00;9.00;;;;;39.94;25.20;100553.47;5025205;28;45702;-77
2022/08/09 10:47:21;;;;;;;;;8.33;8.33;;;;;40.17;23.28;100576.81;5017595;28;45484;-78
2022/08/09 10:50:14;;;;;;;;;8.67;8.67;;;;;39.85;24.24;100574.31;5017598;28;45454;-78
2022/08/09 10:53:18;;;;;;;;;9.00;9.00;;;;;39.55;24.26;100564.34;5019317;28;46477;-76
2022/08/09 10:55:44;;;;;;;;;11.00;11.00;;;;;39.87;24.87;100525.81;5034993;28;45394;-76
2022/08/09 10:58:29;;;;;;;;;10.33;8.67;;;;;40.21;24.92;100574.59;5019210;28;45501;-75
2022/08/09 11:00:55;;;;;;;;;11.00;10.67;;;;;38.96;26.60;100572.34;5036077;28;45434;-76
2022/08/09 11:03:23;;;;;;;;;11.00;11.00;;;;;38.29;27.10;100537.34;5035905;28;46006;-76
2022/08/09 11:06:14;;;;;;;;;9.33;9.00;;;;;38.41;24.93;100560.81;5033228;28;45391;-76
2022/08/09 11:08:41;;;;;;;;;10.00;9.67;;;;;38.12;25.28;100542.41;5028912;28;45399;-76
2022/08/09 11:11:08;;;;;;;;;9.33;9.33;;;;;38.50;25.59;100530.00;5016948;28;45572;-76
2022/08/09 11:13:33;;;;;;;;;9.67;9.67;;;;;38.79;25.10;100546.53;5032237;28;45715;-77
2022/08/09 11:16:44;;;;;;;;;8.67;8.67;;;;;39.01;25.54;100543.78;5019871;28;45430;-75
2022/08/09 11:19:10;;;;;;;;;8.00;8.00;;;;;37.23;26.56;100203.91;5014314;28;45442;-76
2022/08/09 11:21:48;;;;;;;;;13.33;13.33;;;;;38.58;24.96;100434.69;5016426;28;45455;-77